Time;durP1;ratioP1;P1;durP2;ratioP2;P2;SDS_P1;SDS_P2;PMS_P1;PMS_P2;Temp;Humidity;BMP_temperature;BMP_pressure;BME280_temperature;BME280_humidity;BME280_pressure;Samples;Min_cycle;Max_cycle;Signal;HPM_P1;HPM_P2
2021/09/24 00:01:24;;;;;;;3.00;2.70;;;22.50;99.90;;;;;;5080672;28;20536;-46
2021/09/24 00:03:55;;;;;;;4.90;2.83;;;22.50;99.90;;;;;;5075080;28;20996;-40
2021/09/24 00:06:26;;;;;;;2.67;2.47;;;22.40;99.90;;;;;;5064410;28;20464;-42
2021/09/24 00:08:57;;;;;;;2.90;2.70;;;22.30;99.90;;;;;;5077341;28;20489;-37
2021/09/24 00:11:30;;;;;;;2.93;2.73;;;22.30;99.90;;;;;;5079398;28;20509;-38
2021/09/24 00:14:01;;;;;;;2.70;2.50;;;22.20;99.90;;;;;;5082259;28;20592;-38
2021/09/24 00:16:33;;;;;;;3.00;2.80;;;22.20;99.90;;;;;;5081026;28;20479;-39
2021/09/24 00:19:04;;;;;;;2.73;2.53;;;22.20;99.90;;;;;;5081574;28;20467;-38
2021/09/24 00:21:35;;;;;;;2.90;2.70;;;22.30;99.90;;;;;;5081269;28;20530;-39
2021/09/24 00:24:06;;;;;;;3.77;2.80;;;22.20;99.90;;;;;;5082474;28;20443;-39
2021/09/24 00:26:39;;;;;;;2.50;2.30;;;22.10;99.90;;;;;;5074766;28;20448;-39
2021/09/24 00:29:10;;;;;;;2.97;2.77;;;22.00;99.90;;;;;;5083801;28;20530;-37
2021/09/24 00:31:43;;;;;;;2.97;2.77;;;22.10;99.90;;;;;;5071498;28;20458;-43
2021/09/24 00:34:14;;;;;;;3.20;3.00;;;21.90;99.90;;;;;;5081163;28;20448;-40
2021/09/24 00:36:45;;;;;;;2.50;2.30;;;21.80;99.90;;;;;;5075021;28;20429;-41
2021/09/24 00:39:16;;;;;;;2.87;2.67;;;21.80;99.90;;;;;;5072192;28;20443;-41
2021/09/24 00:41:49;;;;;;;2.87;2.67;;;21.80;99.90;;;;;;5085492;28;20441;-41
2021/09/24 00:44:20;;;;;;;2.33;2.23;;;21.80;99.90;;;;;;5085592;28;20418;-47
2021/09/24 00:46:51;;;;;;;2.70;2.60;;;21.70;99.90;;;;;;5084284;28;20459;-43
2021/09/24 00:49:22;;;;;;;3.00;2.70;;;21.60;99.90;;;;;;5084864;28;20421;-43
2021/09/24 00:51:53;;;;;;;2.53;2.33;;;21.60;99.90;;;;;;5070056;28;20429;-41
2021/09/24 00:54:24;;;;;;;2.80;2.60;;;21.60;99.90;;;;;;5065827;28;20414;-41
2021/09/24 00:56:56;;;;;;;3.03;2.83;;;21.50;99.90;;;;;;5064948;28;20515;-41
2021/09/24 00:59:28;;;;;;;3.10;2.90;;;21.50;99.90;;;;;;5065866;28;20427;-41
2021/09/24 01:02:00;;;;;;;4.83;4.57;;;21.30;99.90;;;;;;5063542;28;20453;-39
2021/09/24 01:04:31;;;;;;;4.50;4.10;;;21.20;99.90;;;;;;5065189;28;20444;-40
2021/09/24 01:07:03;;;;;;;11.23;10.07;;;21.20;99.90;;;;;;5064934;28;20464;-40
2021/09/24 01:09:34;;;;;;;3.00;2.80;;;21.20;99.90;;;;;;5071328;28;20445;-41
2021/09/24 01:12:08;;;;;;;5.03;2.83;;;21.20;99.90;;;;;;5064635;28;20914;-45
2021/09/24 01:14:39;;;;;;;3.57;3.27;;;21.10;99.90;;;;;;5065211;28;20517;-43
2021/09/24 01:17:10;;;;;;;2.90;2.70;;;21.10;99.90;;;;;;5063543;28;20458;-43
2021/09/24 01:19:41;;;;;;;3.43;3.23;;;21.00;99.90;;;;;;5079669;28;20454;-40
2021/09/24 01:22:14;;;;;;;4.73;2.60;;;20.90;99.90;;;;;;5084727;28;20467;-39
2021/09/24 01:24:45;;;;;;;5.00;3.43;;;20.90;99.90;;;;;;5084437;28;20422;-41
2021/09/24 01:27:16;;;;;;;3.17;2.87;;;20.80;99.90;;;;;;5084447;28;20427;-40
2021/09/24 01:29:51;;;;;;;3.43;3.13;;;20.80;99.90;;;;;;5084563;28;20467;-40
2021/09/24 01:32:23;;;;;;;3.50;3.30;;;20.70;99.90;;;;;;5083132;28;20512;-40
2021/09/24 01:34:54;;;;;;;3.33;2.90;;;20.60;99.90;;;;;;5084954;28;20787;-40
2021/09/24 01:37:27;;;;;;;4.20;2.73;;;20.50;99.90;;;;;;5081513;28;20436;-40
2021/09/24 01:39:58;;;;;;;3.07;2.87;;;20.50;99.90;;;;;;5077158;28;20451;-46
2021/09/24 01:42:29;;;;;;;2.90;2.70;;;20.40;99.90;;;;;;5075467;28;20457;-42
2021/09/24 01:45:00;;;;;;;3.00;2.80;;;20.40;99.90;;;;;;5064627;28;20444;-40
2021/09/24 01:47:31;;;;;;;4.30;2.93;;;20.40;99.90;;;;;;5071875;28;20422;-42
2021/09/24 01:50:03;;;;;;;3.10;2.40;;;20.30;99.90;;;;;;5075870;28;20433;-40
2021/09/24 01:52:35;;;;;;;3.77;3.47;;;20.20;99.90;;;;;;5083550;28;20475;-40
2021/09/24 01:55:08;;;;;;;3.23;2.93;;;20.10;99.90;;;;;;5084929;28;20542;-41
2021/09/24 01:57:39;;;;;;;3.23;3.03;;;20.00;99.90;;;;;;5074404;28;20453;-41
2021/09/24 02:00:12;;;;;;;3.10;2.80;;;19.90;99.90;;;;;;5063819;28;20434;-43
2021/09/24 02:02:44;;;;;;;3.07;2.87;;;19.90;99.90;;;;;;5075652;28;20485;-46
2021/09/24 02:05:15;;;;;;;2.90;2.70;;;19.80;99.90;;;;;;5084271;28;20567;-40
2021/09/24 02:07:47;;;;;;;3.43;3.13;;;19.70;99.90;;;;;;5082498;28;20500;-39
2021/09/24 02:10:19;;;;;;;3.50;3.30;;;19.60;99.90;;;;;;5073229;28;20505;-37
2021/09/24 02:12:50;;;;;;;3.30;3.00;;;19.40;99.90;;;;;;5066601;28;20457;-43
2021/09/24 02:15:21;;;;;;;3.30;3.00;;;19.40;99.90;;;;;;5066904;28;20570;-42
2021/09/24 02:17:52;;;;;;;3.00;2.80;;;19.30;99.90;;;;;;5079838;28;20426;-40
2021/09/24 02:20:27;;;;;;;3.53;3.30;;;19.30;99.90;;;;;;5068928;28;20495;-42
2021/09/24 02:22:59;;;;;;;3.27;3.07;;;19.20;99.90;;;;;;5083536;28;20465;-39
2021/09/24 02:25:31;;;;;;;3.63;3.33;;;19.30;99.90;;;;;;5084237;28;20454;-43
2021/09/24 02:28:01;;;;;;;3.80;3.50;;;19.20;99.90;;;;;;5083775;28;20422;-42
2021/09/24 02:30:33;;;;;;;3.67;3.37;;;19.20;99.90;;;;;;5076191;28;20422;-40
2021/09/24 02:33:04;;;;;;;3.47;3.27;;;19.20;99.90;;;;;;5082482;28;20904;-40
2021/09/24 02:35:35;;;;;;;3.17;2.97;;;19.10;99.90;;;;;;5083767;28;20581;-42
2021/09/24 02:38:07;;;;;;;3.57;3.30;;;19.20;99.90;;;;;;5083775;28;20428;-38
2021/09/24 02:40:38;;;;;;;3.63;3.33;;;19.10;99.90;;;;;;5082653;28;20452;-43
2021/09/24 02:43:09;;;;;;;3.10;2.90;;;19.10;99.90;;;;;;5063436;28;20448;-39
2021/09/24 02:45:41;;;;;;;3.70;3.30;;;19.00;99.90;;;;;;5067050;28;20492;-40
2021/09/24 02:48:12;;;;;;;4.17;3.87;;;19.00;99.90;;;;;;5071425;28;20503;-41
2021/09/24 02:50:43;;;;;;;3.43;3.23;;;18.90;99.90;;;;;;5072589;28;20433;-39
2021/09/24 02:53:15;;;;;;;4.00;3.70;;;18.90;99.90;;;;;;5074123;28;20448;-40
2021/09/24 02:55:46;;;;;;;4.00;3.70;;;18.80;99.90;;;;;;5072252;28;20462;-40
2021/09/24 02:58:17;;;;;;;3.80;3.50;;;18.80;99.90;;;;;;5062844;28;20455;-41
2021/09/24 03:00:49;;;;;;;4.00;3.70;;;18.80;99.90;;;;;;5062268;28;20498;-43
2021/09/24 03:03:20;;;;;;;3.80;3.50;;;18.80;99.90;;;;;;5076061;28;20506;-41
2021/09/24 03:05:51;;;;;;;4.13;3.73;;;18.80;99.90;;;;;;5071804;28;20471;-42
2021/09/24 03:08:24;;;;;;;4.07;3.67;;;18.70;99.90;;;;;;5070765;28;20439;-40
2021/09/24 03:10:55;;;;;;;3.87;3.67;;;18.70;99.90;;;;;;5072197;28;20508;-39
2021/09/24 03:13:26;;;;;;;4.00;3.70;;;18.70;99.90;;;;;;5074187;28;20976;-39
2021/09/24 03:15:58;;;;;;;3.70;3.50;;;18.60;99.90;;;;;;5075106;28;20466;-42
2021/09/24 03:18:29;;;;;;;3.67;3.23;;;18.60;99.90;;;;;;5076026;28;20462;-41
2021/09/24 03:21:00;;;;;;;3.97;3.57;;;18.50;99.90;;;;;;5069670;28;20455;-43
2021/09/24 03:23:33;;;;;;;6.03;3.57;;;18.50;99.90;;;;;;5077229;28;20502;-42
2021/09/24 03:26:04;;;;;;;3.87;3.60;;;18.50;99.90;;;;;;5071814;28;20487;-40
2021/09/24 03:28:35;;;;;;;4.73;4.33;;;18.40;99.90;;;;;;5065225;28;20467;-43
2021/09/24 03:31:06;;;;;;;4.13;3.83;;;18.40;99.90;;;;;;5061946;28;20487;-40
2021/09/24 03:33:37;;;;;;;5.27;4.87;;;18.30;99.90;;;;;;5063476;28;20468;-41
2021/09/24 03:36:08;;;;;;;3.93;3.63;;;18.20;99.90;;;;;;5080928;28;20451;-43
2021/09/24 03:38:41;;;;;;;5.00;4.70;;;18.10;99.90;;;;;;5083235;28;20500;-43
2021/09/24 03:41:13;;;;;;;4.10;3.70;;;18.10;99.90;;;;;;5082419;28;20450;-41
2021/09/24 03:43:44;;;;;;;4.40;4.10;;;18.00;99.90;;;;;;5077485;28;20456;-40
2021/09/24 03:46:15;;;;;;;4.17;3.83;;;17.90;99.90;;;;;;5065791;28;20480;-41
2021/09/24 03:48:46;;;;;;;4.33;3.93;;;17.90;99.90;;;;;;5062809;28;20449;-39
2021/09/24 03:51:17;;;;;;;4.40;4.10;;;17.90;99.90;;;;;;5062160;28;20439;-39
2021/09/24 03:53:50;;;;;;;4.53;4.20;;;17.80;99.90;;;;;;5075573;28;20794;-39
2021/09/24 03:56:21;;;;;;;4.03;3.73;;;17.90;99.90;;;;;;5063278;28;21008;-39
2021/09/24 03:58:52;;;;;;;4.80;4.40;;;17.90;99.90;;;;;;5062769;28;20537;-39
2021/09/24 04:01:23;;;;;;;4.67;4.27;;;17.90;99.90;;;;;;5062949;28;20483;-39
2021/09/24 04:03:55;;;;;;;4.50;4.20;;;17.80;99.90;;;;;;5083324;28;20514;-43
2021/09/24 04:06:26;;;;;;;4.87;4.47;;;17.70;99.90;;;;;;5085936;28;20479;-39
2021/09/24 04:08:59;;;;;;;4.10;3.80;;;17.60;99.90;;;;;;5086169;28;20465;-41
2021/09/24 04:11:30;;;;;;;5.07;4.67;;;17.60;99.90;;;;;;5079292;28;20456;-41
2021/09/24 04:14:01;;;;;;;4.57;4.17;;;17.60;99.90;;;;;;5082154;28;20430;-39
2021/09/24 04:16:31;;;;;;;4.90;4.50;;;17.60;99.90;;;;;;5083198;28;20692;-40
2021/09/24 04:19:03;;;;;;;4.63;4.27;;;17.60;99.90;;;;;;5085331;28;20444;-39
2021/09/24 04:21:34;;;;;;;4.97;4.57;;;17.50;99.90;;;;;;5085694;28;20439;-42
2021/09/24 04:24:07;;;;;;;4.23;3.90;;;17.50;99.90;;;;;;5086353;28;20443;-40
2021/09/24 04:26:38;;;;;;;5.23;4.83;;;17.60;99.90;;;;;;5084935;28;20507;-42
2021/09/24 04:29:08;;;;;;;5.30;4.80;;;17.50;99.90;;;;;;5084785;28;20453;-43
2021/09/24 04:31:39;;;;;;;5.17;4.67;;;17.50;99.90;;;;;;5084134;28;20848;-39
2021/09/24 04:34:10;;;;;;;4.80;4.40;;;17.40;99.90;;;;;;5085791;28;20462;-41
2021/09/24 04:36:41;;;;;;;5.10;4.70;;;17.40;99.90;;;;;;5085372;28;20475;-39
2021/09/24 04:39:14;;;;;;;5.13;4.73;;;17.30;99.90;;;;;;5085706;28;20467;-39
2021/09/24 04:41:45;;;;;;;4.87;4.57;;;17.20;99.90;;;;;;5084993;28;20443;-38
2021/09/24 04:44:16;;;;;;;4.80;4.40;;;17.10;99.90;;;;;;5085559;28;20474;-38
2021/09/24 04:46:48;;;;;;;5.77;5.27;;;17.00;99.90;;;;;;5083612;28;20479;-40
2021/09/24 04:49:19;;;;;;;5.00;4.50;;;17.00;99.90;;;;;;5084332;28;20447;-38
2021/09/24 04:51:50;;;;;;;5.33;4.83;;;16.90;99.90;;;;;;5085543;28;20439;-39
2021/09/24 04:54:22;;;;;;;4.93;4.53;;;16.80;99.90;;;;;;5085357;28;20433;-39
2021/09/24 04:56:53;;;;;;;5.63;5.10;;;16.80;99.90;;;;;;5071823;28;20496;-39
2021/09/24 04:59:24;;;;;;;5.10;4.60;;;16.90;99.90;;;;;;5065351;28;20452;-39
2021/09/24 05:01:55;;;;;;;5.60;5.07;;;16.90;99.90;;;;;;5064821;28;20500;-40
2021/09/24 05:04:27;;;;;;;5.20;4.80;;;16.90;99.90;;;;;;5065032;28;20472;-40
2021/09/24 05:06:58;;;;;;;6.07;5.57;;;16.90;99.90;;;;;;5079324;28;20467;-39
2021/09/24 05:09:30;;;;;;;5.10;4.60;;;17.00;99.90;;;;;;5085253;28;20460;-43
2021/09/24 05:12:01;;;;;;;5.33;4.83;;;17.00;99.90;;;;;;5072545;28;20448;-42
2021/09/24 05:14:33;;;;;;;5.87;5.27;;;17.00;99.90;;;;;;5064581;28;20467;-39
2021/09/24 05:17:03;;;;;;;5.00;4.60;;;17.00;99.90;;;;;;5067269;28;20475;-39
2021/09/24 05:19:34;;;;;;;4.83;4.43;;;17.00;99.90;;;;;;5084900;28;20481;-40
2021/09/24 05:22:06;;;;;;;4.80;4.40;;;17.00;99.90;;;;;;5083796;28;20447;-44
2021/09/24 05:24:38;;;;;;;5.17;4.77;;;17.00;99.90;;;;;;5082853;28;20451;-46
2021/09/24 05:27:09;;;;;;;5.47;5.00;;;16.90;99.90;;;;;;5083902;28;20475;-40
2021/09/24 05:29:40;;;;;;;5.57;5.10;;;16.80;99.90;;;;;;5084720;28;20942;-43
2021/09/24 05:32:13;;;;;;;5.90;5.03;;;16.80;99.90;;;;;;5083409;28;20447;-39
2021/09/24 05:34:45;;;;;;;6.00;5.47;;;16.70;99.90;;;;;;5084192;28;20443;-41
2021/09/24 05:37:15;;;;;;;5.27;4.87;;;16.70;99.90;;;;;;5079042;28;20457;-39
2021/09/24 05:39:48;;;;;;;5.30;4.83;;;16.70;99.90;;;;;;5075559;28;20439;-39
2021/09/24 05:42:19;;;;;;;5.60;5.10;;;16.60;99.90;;;;;;5083765;28;20482;-39
2021/09/24 05:44:50;;;;;;;5.20;4.70;;;16.60;99.90;;;;;;5064048;28;20456;-39
2021/09/24 05:47:21;;;;;;;5.33;4.93;;;16.50;99.90;;;;;;5068333;28;20483;-40
2021/09/24 05:49:52;;;;;;;5.03;4.60;;;16.40;99.90;;;;;;5084416;28;20509;-42
2021/09/24 05:52:23;;;;;;;5.40;4.90;;;16.30;99.90;;;;;;5084125;28;20444;-41
2021/09/24 05:54:56;;;;;;;6.30;5.70;;;16.30;99.90;;;;;;5083979;28;20932;-45
2021/09/24 05:57:27;;;;;;;5.90;5.37;;;16.20;99.90;;;;;;5083820;28;20452;-41
2021/09/24 05:59:58;;;;;;;5.67;5.20;;;16.10;99.90;;;;;;5083949;28;20448;-39
2021/09/24 06:02:29;;;;;;;6.20;5.60;;;16.00;99.90;;;;;;5082732;28;20502;-39
2021/09/24 06:05:01;;;;;;;5.67;5.17;;;16.00;99.90;;;;;;5083328;28;20511;-39
2021/09/24 06:07:31;;;;;;;5.57;5.07;;;15.90;99.90;;;;;;5063796;28;20510;-39
2021/09/24 06:10:06;;;;;;;5.67;5.27;;;15.80;99.90;;;;;;5080982;28;20955;-41
2021/09/24 06:12:37;;;;;;;5.10;4.50;;;15.80;99.90;;;;;;5083343;28;20482;-41
2021/09/24 06:15:09;;;;;;;6.07;5.57;;;15.80;99.90;;;;;;5082804;28;20462;-38
2021/09/24 06:17:40;;;;;;;8.73;5.53;;;15.70;99.90;;;;;;5080004;28;20456;-38
2021/09/24 06:20:13;;;;;;;5.57;5.00;;;15.70;99.90;;;;;;5083238;28;20562;-40
2021/09/24 06:22:44;;;;;;;6.10;5.53;;;15.60;99.90;;;;;;5083136;28;20447;-40
2021/09/24 06:25:17;;;;;;;6.67;6.07;;;15.60;99.90;;;;;;5082170;28;20456;-42
2021/09/24 06:27:48;;;;;;;6.27;5.77;;;15.50;99.90;;;;;;5083251;28;20507;-40
2021/09/24 06:30:23;;;;;;;6.07;5.57;;;15.50;99.90;;;;;;5074280;28;20539;-39
2021/09/24 06:32:54;;;;;;;5.80;5.37;;;15.50;99.90;;;;;;5062785;28;20535;-39
2021/09/24 06:35:25;;;;;;;5.87;5.37;;;15.50;99.90;;;;;;5063401;28;20471;-40
2021/09/24 06:37:56;;;;;;;6.17;5.60;;;15.40;99.90;;;;;;5063351;28;20448;-39
2021/09/24 06:40:29;;;;;;;6.03;5.07;;;15.40;99.90;;;;;;5079716;28;20455;-39
2021/09/24 06:43:00;;;;;;;5.77;5.30;;;15.30;99.90;;;;;;5067151;28;20547;-39
2021/09/24 06:45:31;;;;;;;6.63;6.10;;;15.30;99.90;;;;;;5062539;28;20484;-40
2021/09/24 06:48:02;;;;;;;6.03;5.53;;;15.30;99.90;;;;;;5062422;28;20483;-38
2021/09/24 06:50:33;;;;;;;6.80;5.80;;;15.20;99.90;;;;;;5063452;28;20448;-42
2021/09/24 06:53:05;;;;;;;5.60;5.13;;;15.20;99.90;;;;;;5078380;28;20549;-38
2021/09/24 06:55:38;;;;;;;5.60;5.10;;;15.10;99.90;;;;;;5082895;28;20479;-44
2021/09/24 06:58:09;;;;;;;6.30;5.70;;;15.00;99.90;;;;;;5082129;28;20463;-39
2021/09/24 07:00:41;;;;;;;6.80;6.20;;;15.00;99.90;;;;;;5082157;28;20581;-40
2021/09/24 07:03:12;;;;;;;7.10;6.50;;;14.90;99.90;;;;;;5081773;28;20469;-38
2021/09/24 07:05:43;;;;;;;5.77;5.27;;;14.90;99.90;;;;;;5083003;28;20446;-39
2021/09/24 07:08:14;;;;;;;6.23;5.63;;;14.90;99.90;;;;;;5082622;28;20491;-41
2021/09/24 07:10:47;;;;;;;6.80;6.20;;;14.90;99.90;;;;;;5082382;28;20454;-44
2021/09/24 07:13:18;;;;;;;7.37;6.77;;;15.00;99.90;;;;;;5079287;28;20480;-42
2021/09/24 07:15:49;;;;;;;5.93;5.43;;;14.90;99.90;;;;;;5082115;28;20443;-42
2021/09/24 07:18:20;;;;;;;7.63;6.20;;;14.80;99.90;;;;;;5082172;28;20872;-42
2021/09/24 07:20:51;;;;;;;6.50;5.90;;;14.80;99.90;;;;;;5083038;28;20447;-39
2021/09/24 07:23:22;;;;;;;6.67;6.17;;;14.70;99.90;;;;;;5082170;28;20452;-42
2021/09/24 07:25:55;;;;;;;6.83;6.07;;;14.70;99.90;;;;;;5082321;28;20448;-41
2021/09/24 07:28:26;;;;;;;6.37;5.87;;;14.70;99.90;;;;;;5082686;28;20570;-40
2021/09/24 07:30:57;;;;;;;7.50;6.80;;;14.60;99.90;;;;;;5082134;28;20451;-42
2021/09/24 07:33:28;;;;;;;7.40;6.70;;;14.60;99.90;;;;;;5063105;28;20490;-47
2021/09/24 07:35:59;;;;;;;6.30;5.70;;;14.60;99.90;;;;;;5079161;28;20447;-39
2021/09/24 07:38:30;;;;;;;6.63;6.03;;;14.60;99.90;;;;;;5082283;28;20472;-43
2021/09/24 07:41:02;;;;;;;7.80;6.60;;;14.50;99.90;;;;;;5086651;28;20486;-43
2021/09/24 07:43:33;;;;;;;6.50;6.00;;;14.50;99.90;;;;;;5086015;28;20479;-39
2021/09/24 07:46:04;;;;;;;9.23;6.50;;;14.50;99.90;;;;;;5085951;28;20560;-41
2021/09/24 07:48:35;;;;;;;7.07;6.47;;;14.50;99.90;;;;;;5085900;28;20529;-41
2021/09/24 07:51:06;;;;;;;7.07;6.43;;;14.50;99.90;;;;;;5086800;28;20424;-39
2021/09/24 07:53:37;;;;;;;7.43;6.60;;;14.60;99.90;;;;;;5066635;28;20452;-37
2021/09/24 07:56:11;;;;;;;6.63;6.03;;;14.70;99.90;;;;;;5065952;28;20582;-39
2021/09/24 07:58:42;;;;;;;7.07;6.47;;;14.80;99.90;;;;;;5066392;28;20448;-39
2021/09/24 08:01:14;;;;;;;7.13;6.53;;;14.70;99.90;;;;;;5065153;28;20471;-39
2021/09/24 08:03:45;;;;;;;6.90;6.10;;;14.70;99.90;;;;;;5075331;28;20454;-41
2021/09/24 08:06:16;;;;;;;7.33;6.63;;;14.70;99.90;;;;;;5081323;28;20518;-38
2021/09/24 08:08:47;;;;;;;7.63;6.93;;;14.70;99.90;;;;;;5065826;28;20492;-39
2021/09/24 08:11:19;;;;;;;8.13;7.17;;;14.80;99.90;;;;;;5065700;28;20444;-38
2021/09/24 08:13:50;;;;;;;7.37;6.53;;;14.80;99.90;;;;;;5066222;28;20459;-39
2021/09/24 08:16:21;;;;;;;7.10;6.50;;;14.80;99.90;;;;;;5064552;28;20487;-41
2021/09/24 08:18:52;;;;;;;6.43;5.83;;;14.70;99.90;;;;;;5066009;28;20485;-40
2021/09/24 08:21:24;;;;;;;7.17;6.57;;;14.70;99.90;;;;;;5066137;28;20459;-39
2021/09/24 08:23:55;;;;;;;7.03;6.33;;;14.60;99.90;;;;;;5085762;28;20475;-39
2021/09/24 08:26:27;;;;;;;6.43;5.93;;;14.60;99.90;;;;;;5085243;28;20447;-39
2021/09/24 08:28:58;;;;;;;7.87;7.07;;;14.60;99.90;;;;;;5085860;28;20491;-38
2021/09/24 08:31:31;;;;;;;7.00;6.40;;;14.50;99.90;;;;;;5083640;28;20954;-38
2021/09/24 08:34:02;;;;;;;7.33;6.63;;;14.50;99.90;;;;;;5067237;28;20429;-38
2021/09/24 08:36:34;;;;;;;8.60;7.77;;;14.60;99.90;;;;;;5085444;28;20527;-39
2021/09/24 08:39:05;;;;;;;7.10;6.40;;;14.40;99.90;;;;;;5085375;28;20498;-39
2021/09/24 08:41:38;;;;;;;8.83;7.50;;;14.40;99.90;;;;;;5083960;28;20455;-39
2021/09/24 08:44:09;;;;;;;7.83;7.03;;;14.30;99.90;;;;;;5065607;28;20460;-38
2021/09/24 08:46:40;;;;;;;7.10;6.50;;;14.20;99.90;;;;;;5063898;28;20456;-38
2021/09/24 08:49:11;;;;;;;6.83;6.13;;;14.20;99.90;;;;;;5065932;28;20483;-40
2021/09/24 08:51:42;;;;;;;7.70;7.00;;;14.10;99.90;;;;;;5067119;28;20448;-38
2021/09/24 08:54:13;;;;;;;6.50;5.93;;;14.10;99.90;;;;;;5085383;28;20515;-38
2021/09/24 08:56:45;;;;;;;7.50;6.63;;;14.00;99.90;;;;;;5084820;28;20477;-38
2021/09/24 08:59:17;;;;;;;7.17;6.47;;;14.00;99.90;;;;;;5085590;28;20954;-38
2021/09/24 09:02:01;;;;;;;7.63;6.60;;;13.90;99.90;;;;;;5081141;28;20482;-38
2021/09/24 09:04:36;;;;;;;7.27;6.50;;;14.00;99.90;;;;;;5065195;28;20431;-37
2021/09/24 09:07:08;;;;;;;6.90;6.30;;;13.90;99.90;;;;;;5065162;28;20445;-38
2021/09/24 09:09:41;;;;;;;8.00;6.50;;;13.80;99.90;;;;;;5064907;28;20852;-38
2021/09/24 09:12:17;;;;;;;8.97;7.77;;;13.90;99.90;;;;;;5070478;28;20483;-38
2021/09/24 09:15:01;;;;;;;6.97;6.37;;;13.80;99.90;;;;;;5085050;28;21117;-41
2021/09/24 09:17:34;;;;;;;7.07;6.47;;;13.70;99.90;;;;;;5083614;28;20447;-42
2021/09/24 09:20:17;;;;;;;7.60;6.80;;;13.70;99.90;;;;;;5084877;28;20443;-39
2021/09/24 09:22:50;;;;;;;6.17;5.27;;;13.70;99.90;;;;;;5073907;28;20440;-37
2021/09/24 09:25:27;;;;;;;7.40;6.73;;;13.70;99.90;;;;;;5064841;28;20506;-41
2021/09/24 09:28:01;;;;;;;7.13;6.53;;;13.60;99.90;;;;;;5064502;28;20476;-38
2021/09/24 09:30:34;;;;;;;8.10;7.03;;;13.60;99.90;;;;;;5064070;28;20511;-38
2021/09/24 09:33:08;;;;;;;8.70;7.33;;;13.60;99.90;;;;;;5076666;28;20451;-38
2021/09/24 09:35:41;;;;;;;9.50;8.60;;;13.60;99.90;;;;;;5084870;28;20462;-39
2021/09/24 09:38:21;;;;;;;8.40;7.40;;;13.60;99.90;;;;;;5079958;28;20461;-38
2021/09/24 09:40:55;;;;;;;9.20;7.57;;;13.60;99.90;;;;;;5064872;28;20444;-39
2021/09/24 09:43:32;;;;;;;8.00;7.30;;;13.60;99.90;;;;;;5082243;28;20787;-40
2021/09/24 09:46:06;;;;;;;8.87;7.73;;;13.60;99.90;;;;;;5083661;28;20522;-41
2021/09/24 09:48:37;;;;;;;8.90;8.10;;;13.60;99.90;;;;;;5084021;28;20499;-40
2021/09/24 09:51:09;;;;;;;8.00;7.20;;;13.60;99.90;;;;;;5084113;28;20519;-39
2021/09/24 09:53:40;;;;;;;7.90;7.10;;;13.50;99.90;;;;;;5066575;28;20456;-38
2021/09/24 09:56:11;;;;;;;8.47;7.57;;;13.50;99.90;;;;;;5068129;28;21271;-39
2021/09/24 09:58:44;;;;;;;9.17;7.87;;;13.50;99.90;;;;;;5083798;28;20456;-39
2021/09/24 10:01:18;;;;;;;8.53;7.43;;;13.50;99.90;;;;;;5082652;28;20467;-39
2021/09/24 10:03:51;;;;;;;8.50;7.70;;;13.50;99.90;;;;;;5084446;28;20466;-38
2021/09/24 10:06:26;;;;;;;9.23;7.53;;;13.50;99.90;;;;;;5082798;28;20470;-41
2021/09/24 10:08:58;;;;;;;10.70;8.97;;;13.50;99.90;;;;;;5084355;28;20454;-40
2021/09/24 10:11:33;;;;;;;9.47;8.50;;;13.50;99.90;;;;;;5080775;28;20632;-38
2021/09/24 10:14:09;;;;;;;8.53;7.63;;;13.50;99.90;;;;;;5084603;28;20443;-41
2021/09/24 10:16:41;;;;;;;8.83;7.93;;;13.60;99.90;;;;;;5082692;28;20474;-40
2021/09/24 10:19:13;;;;;;;9.63;8.10;;;13.60;99.90;;;;;;5084222;28;20444;-38
2021/09/24 10:21:55;;;;;;;11.83;9.10;;;13.60;99.90;;;;;;5073773;28;20468;-39
2021/09/24 10:24:26;;;;;;;8.53;7.37;;;13.60;99.90;;;;;;5064003;28;20445;-41
2021/09/24 10:27:01;;;;;;;10.50;8.97;;;13.60;99.90;;;;;;5062962;28;20452;-40
2021/09/24 10:29:38;;;;;;;7.83;7.10;;;13.50;99.90;;;;;;5064043;28;20455;-39
2021/09/24 10:32:18;;;;;;;9.97;7.90;;;13.50;99.90;;;;;;5073346;28;20530;-39
2021/09/24 10:35:01;;;;;;;9.30;7.40;;;13.50;99.90;;;;;;5083154;28;20474;-40
2021/09/24 10:37:35;;;;;;;9.10;8.30;;;13.50;99.90;;;;;;5083376;28;20503;-39
2021/09/24 10:40:26;;;;;;;8.53;7.30;;;13.50;99.90;;;;;;5083306;28;20652;-39
2021/09/24 10:43:01;;;;;;;9.10;8.30;;;13.50;99.90;;;;;;5080896;28;20451;-38
2021/09/24 10:45:40;;;;;;;9.83;7.33;;;13.40;99.90;;;;;;5063336;28;20454;-39
2021/09/24 10:48:19;;;;;;;8.67;7.53;;;13.40;99.90;;;;;;5062520;28;20468;-39
2021/09/24 10:51:06;;;;;;;7.50;6.83;;;13.30;99.90;;;;;;5063681;28;20480;-39
2021/09/24 10:53:43;;;;;;;7.63;6.77;;;13.30;99.90;;;;;;5066088;28;20487;-39
2021/09/24 10:56:33;;;;;;;7.87;7.07;;;13.30;99.90;;;;;;5062954;28;20448;-39
2021/09/24 10:59:26;;;;;;;8.97;8.07;;;13.30;99.90;;;;;;5063247;28;20473;-39
2021/09/24 11:01:59;;;;;;;12.03;7.77;;;13.30;99.90;;;;;;5062292;28;20484;-41
2021/09/24 11:04:44;;;;;;;9.47;7.60;;;13.30;99.90;;;;;;5063397;28;20448;-39
2021/09/24 11:07:33;;;;;;;7.70;7.00;;;13.30;99.90;;;;;;5062868;28;20451;-40
2021/09/24 11:10:06;;;;;;;8.87;8.00;;;13.30;99.90;;;;;;5063112;28;20483;-38
2021/09/24 11:12:56;;;;;;;10.50;8.50;;;13.20;99.90;;;;;;5077423;28;20479;-42
2021/09/24 11:15:27;;;;;;;9.70;8.80;;;13.20;99.90;;;;;;5082897;28;20443;-41
2021/09/24 11:18:00;;;;;;;9.63;7.10;;;13.20;99.90;;;;;;5082858;28;20471;-39
2021/09/24 11:20:38;;;;;;;8.50;7.63;;;13.10;99.90;;;;;;5082874;28;20551;-39
2021/09/24 11:23:34;;;;;;;8.93;8.07;;;13.10;99.90;;;;;;5062660;28;20472;-39
2021/09/24 11:26:17;;;;;;;8.87;7.97;;;13.00;99.90;;;;;;5062778;28;20479;-40
2021/09/24 11:29:05;;;;;;;8.60;7.70;;;13.00;99.90;;;;;;5062569;28;20510;-37
2021/09/24 11:32:06;;;;;;;11.17;8.53;;;13.00;99.90;;;;;;5071609;28;20555;-38
2021/09/24 11:34:59;;;;;;;11.53;8.53;;;13.00;99.90;;;;;;5082195;28;20526;-40
2021/09/24 11:37:34;;;;;;;10.40;8.23;;;13.00;99.90;;;;;;5077248;28;20474;-39
2021/09/24 11:40:09;;;;;;;8.60;7.60;;;13.00;99.90;;;;;;5081981;28;20482;-38
2021/09/24 11:42:42;;;;;;;9.33;8.43;;;12.90;99.90;;;;;;5082596;28;20450;-38
2021/09/24 11:45:15;;;;;;;8.50;7.57;;;12.80;99.90;;;;;;5083217;28;20443;-40
2021/09/24 11:47:58;;;;;;;9.07;8.20;;;12.80;99.90;;;;;;5063485;28;20449;-38
2021/09/24 11:50:31;;;;;;;8.77;7.87;;;12.70;99.90;;;;;;5063300;28;20574;-38
2021/09/24 11:53:05;;;;;;;8.83;8.03;;;12.70;99.90;;;;;;5082632;28;20459;-40
2021/09/24 11:55:37;;;;;;;10.87;7.97;;;12.70;99.90;;;;;;5082525;28;20549;-39
2021/09/24 11:58:10;;;;;;;10.40;8.40;;;12.70;99.90;;;;;;5082284;28;20442;-37
2021/09/24 12:00:43;;;;;;;8.90;8.00;;;12.70;99.90;;;;;;5082225;28;20594;-37
2021/09/24 12:03:20;;;;;;;9.63;8.63;;;12.70;99.90;;;;;;5081984;28;20466;-38
2021/09/24 12:06:01;;;;;;;10.53;8.37;;;12.70;99.90;;;;;;5082534;28;20452;-37
2021/09/24 12:08:34;;;;;;;8.93;8.07;;;12.70;99.90;;;;;;5081339;28;20456;-37
2021/09/24 12:11:07;;;;;;;9.83;8.83;;;12.70;99.90;;;;;;5078999;28;20534;-37
2021/09/24 12:13:41;;;;;;;11.27;8.60;;;12.70;99.90;;;;;;5062713;28;20882;-37
2021/09/24 12:16:13;;;;;;;11.47;9.13;;;12.60;99.90;;;;;;5062347;28;20451;-37
2021/09/24 12:18:54;;;;;;;9.60;8.60;;;12.60;99.90;;;;;;5062380;28;20450;-41
2021/09/24 12:21:30;;;;;;;9.80;8.80;;;12.70;99.90;;;;;;5070468;28;20452;-39
2021/09/24 12:24:01;;;;;;;11.03;9.50;;;12.70;99.90;;;;;;5086475;28;20439;-40
2021/09/24 12:26:34;;;;;;;10.10;8.27;;;12.70;99.90;;;;;;5084519;28;20458;-38
2021/09/24 12:29:08;;;;;;;8.97;8.03;;;12.70;99.90;;;;;;5065950;28;20448;-38
2021/09/24 12:31:42;;;;;;;11.13;9.00;;;12.70;99.90;;;;;;5064773;28;20491;-38
2021/09/24 12:34:15;;;;;;;10.10;8.87;;;12.60;99.90;;;;;;5078181;28;20439;-38
2021/09/24 12:37:01;;;;;;;11.10;9.90;;;12.60;99.90;;;;;;5085094;28;20487;-38
2021/09/24 12:39:34;;;;;;;10.47;9.30;;;12.70;99.90;;;;;;5085675;28;20448;-37
2021/09/24 12:42:06;;;;;;;11.73;9.90;;;12.80;99.90;;;;;;5085457;28;20570;-38
2021/09/24 12:44:49;;;;;;;13.40;9.90;;;12.90;99.90;;;;;;5086128;28;20455;-38
2021/09/24 12:47:25;;;;;;;11.97;9.83;;;12.90;99.90;;;;;;5083861;28;20961;-37
2021/09/24 12:49:58;;;;;;;11.67;10.23;;;12.90;99.90;;;;;;5085672;28;20443;-37
2021/09/24 12:52:33;;;;;;;15.23;9.63;;;12.90;99.90;;;;;;5085792;28;20530;-39
2021/09/24 12:55:07;;;;;;;11.33;9.27;;;12.80;99.90;;;;;;5067788;28;20444;-37
2021/09/24 12:57:38;;;;;;;16.43;9.20;;;12.80;99.90;;;;;;5073926;28;20986;-39
2021/09/24 13:00:12;;;;;;;11.00;9.63;;;12.80;99.90;;;;;;5085436;28;20520;-37
2021/09/24 13:02:44;;;;;;;10.83;8.57;;;12.80;99.90;;;;;;5073701;28;20548;-37
2021/09/24 13:05:20;;;;;;;10.30;8.50;;;12.70;99.90;;;;;;5065365;28;20443;-37
2021/09/24 13:07:53;;;;;;;11.77;8.97;;;12.70;99.90;;;;;;5065805;28;20547;-37
2021/09/24 13:10:24;;;;;;;9.83;8.67;;;12.60;99.90;;;;;;5085098;28;20511;-37
2021/09/24 13:12:55;;;;;;;9.50;8.53;;;12.60;99.90;;;;;;5066990;28;20488;-38
2021/09/24 13:15:26;;;;;;;9.63;8.60;;;12.60;99.90;;;;;;5064774;28;20452;-37